West End, Pennsylvania
Current Conditions -  °F | °C
As of 2:56 PM on Friday 28 Nov 2014 (Local Time) from KCXY Reporting Station
Few Clouds Few Clouds  
Wind Chill: 28°   Ceiling: Unl
Heat Index: 36°   Visibility: 10mi
Dew Point: 14°   Wind: 13mph
Humidity: 41%   Direction: 320°NW
Pressure: 30.24"   Gusts: NA
Location:  40.273°N, 76.8892°W
Report Text: KCXY 281956Z 32011KT 10SM FEW050 02/M10 A3024 RMK AO2 SLP244 T00221100
Loading
Personal Weather Stations






























Interactive Weather Map New forecast layout! Learn more

10-Day Weather Forecast

Advertisements
Track Severe Weather on mobile